sensor_id;sensor_type;location;lat;lon;timestamp;P1;durP1;ratioP1;P2;durP2;ratioP2
56429;SDS011;42332;52.136;20.666;2022-09-09T00:02:15;12.88;;;4.40;;
56429;SDS011;42332;52.136;20.666;2022-09-09T00:04:46;13.80;;;4.35;;
56429;SDS011;42332;52.136;20.666;2022-09-09T00:07:27;11.57;;;4.40;;
56429;SDS011;42332;52.136;20.666;2022-09-09T00:18:36;10.00;;;3.58;;
56429;SDS011;42332;52.136;20.666;2022-09-09T00:21:11;12.10;;;4.10;;
56429;SDS011;42332;52.136;20.666;2022-09-09T00:23:44;12.93;;;4.68;;
56429;SDS011;42332;52.136;20.666;2022-09-09T00:29:10;13.30;;;4.63;;
56429;SDS011;42332;52.136;20.666;2022-09-09T00:31:45;11.55;;;4.47;;
56429;SDS011;42332;52.136;20.666;2022-09-09T00:36:39;11.98;;;4.32;;
56429;SDS011;42332;52.136;20.666;2022-09-09T00:39:05;11.30;;;4.45;;
56429;SDS011;42332;52.136;20.666;2022-09-09T00:43:57;10.70;;;4.20;;
56429;SDS011;42332;52.136;20.666;2022-09-09T00:49:15;16.50;;;4.70;;
56429;SDS011;42332;52.136;20.666;2022-09-09T01:00:16;18.25;;;4.65;;
56429;SDS011;42332;52.136;20.666;2022-09-09T01:11:15;12.90;;;4.72;;
56429;SDS011;42332;52.136;20.666;2022-09-09T01:13:46;12.05;;;4.95;;
56429;SDS011;42332;52.136;20.666;2022-09-09T01:16:14;16.02;;;4.78;;
56429;SDS011;42332;52.136;20.666;2022-09-09T01:18:43;17.25;;;5.30;;
56429;SDS011;42332;52.136;20.666;2022-09-09T01:28:44;16.48;;;5.35;;
56429;SDS011;42332;52.136;20.666;2022-09-09T01:31:13;10.65;;;5.07;;
56429;SDS011;42332;52.136;20.666;2022-09-09T01:33:40;9.90;;;5.07;;
56429;SDS011;42332;52.136;20.666;2022-09-09T01:36:18;13.63;;;5.60;;
56429;SDS011;42332;52.136;20.666;2022-09-09T01:38:44;14.00;;;5.00;;
56429;SDS011;42332;52.136;20.666;2022-09-09T01:41:10;13.75;;;5.78;;
56429;SDS011;42332;52.136;20.666;2022-09-09T01:43:35;12.20;;;5.13;;
56429;SDS011;42332;52.136;20.666;2022-09-09T01:46:01;12.73;;;5.40;;
56429;SDS011;42332;52.136;20.666;2022-09-09T01:48:27;15.75;;;5.38;;
56429;SDS011;42332;52.136;20.666;2022-09-09T01:50:53;10.80;;;4.55;;
56429;SDS011;42332;52.136;20.666;2022-09-09T01:53:19;11.93;;;5.78;;
56429;SDS011;42332;52.136;20.666;2022-09-09T01:55:57;13.52;;;5.75;;
56429;SDS011;42332;52.136;20.666;2022-09-09T01:58:28;14.40;;;5.22;;
56429;SDS011;42332;52.136;20.666;2022-09-09T02:03:27;16.08;;;5.28;;
56429;SDS011;42332;52.136;20.666;2022-09-09T02:08:38;19.35;;;6.10;;
56429;SDS011;42332;52.136;20.666;2022-09-09T02:11:14;13.23;;;4.93;;
56429;SDS011;42332;52.136;20.666;2022-09-09T02:13:41;16.83;;;5.93;;
56429;SDS011;42332;52.136;20.666;2022-09-09T02:16:12;13.32;;;5.78;;
56429;SDS011;42332;52.136;20.666;2022-09-09T02:18:51;16.48;;;5.88;;
56429;SDS011;42332;52.136;20.666;2022-09-09T02:21:33;17.00;;;6.22;;
56429;SDS011;42332;52.136;20.666;2022-09-09T02:24:04;14.40;;;6.38;;
56429;SDS011;42332;52.136;20.666;2022-09-09T02:26:32;16.38;;;6.18;;
56429;SDS011;42332;52.136;20.666;2022-09-09T02:28:59;13.43;;;5.70;;
56429;SDS011;42332;52.136;20.666;2022-09-09T02:31:27;13.95;;;5.47;;
56429;SDS011;42332;52.136;20.666;2022-09-09T02:33:56;15.15;;;6.30;;
56429;SDS011;42332;52.136;20.666;2022-09-09T02:36:24;14.70;;;5.97;;
56429;SDS011;42332;52.136;20.666;2022-09-09T02:38:50;12.57;;;5.88;;
56429;SDS011;42332;52.136;20.666;2022-09-09T02:41:30;14.90;;;6.75;;
56429;SDS011;42332;52.136;20.666;2022-09-09T02:43:57;11.25;;;5.95;;
56429;SDS011;42332;52.136;20.666;2022-09-09T02:49:11;15.30;;;6.18;;
56429;SDS011;42332;52.136;20.666;2022-09-09T02:51:49;14.10;;;6.07;;
56429;SDS011;42332;52.136;20.666;2022-09-09T02:54:37;12.82;;;5.70;;
56429;SDS011;42332;52.136;20.666;2022-09-09T02:57:17;19.63;;;6.30;;
56429;SDS011;42332;52.136;20.666;2022-09-09T02:59:46;15.50;;;6.78;;
56429;SDS011;42332;52.136;20.666;2022-09-09T03:02:12;14.20;;;5.78;;
56429;SDS011;42332;52.136;20.666;2022-09-09T03:04:38;14.95;;;6.03;;
56429;SDS011;42332;52.136;20.666;2022-09-09T03:07:04;16.17;;;6.00;;
56429;SDS011;42332;52.136;20.666;2022-09-09T03:09:29;13.80;;;6.20;;
56429;SDS011;42332;52.136;20.666;2022-09-09T03:11:55;13.05;;;6.00;;
56429;SDS011;42332;52.136;20.666;2022-09-09T03:14:21;11.85;;;5.80;;
56429;SDS011;42332;52.136;20.666;2022-09-09T03:16:50;15.55;;;6.18;;
56429;SDS011;42332;52.136;20.666;2022-09-09T03:19:16;16.02;;;7.35;;
56429;SDS011;42332;52.136;20.666;2022-09-09T03:21:42;13.85;;;6.32;;
56429;SDS011;42332;52.136;20.666;2022-09-09T03:24:07;13.55;;;6.85;;
56429;SDS011;42332;52.136;20.666;2022-09-09T03:26:33;12.85;;;6.07;;
56429;SDS011;42332;52.136;20.666;2022-09-09T03:28:58;10.85;;;5.43;;
56429;SDS011;42332;52.136;20.666;2022-09-09T03:31:25;17.70;;;6.18;;
56429;SDS011;42332;52.136;20.666;2022-09-09T03:33:51;17.13;;;6.70;;
56429;SDS011;42332;52.136;20.666;2022-09-09T03:36:16;17.63;;;6.82;;
56429;SDS011;42332;52.136;20.666;2022-09-09T03:38:41;16.75;;;6.80;;
56429;SDS011;42332;52.136;20.666;2022-09-09T03:41:07;18.83;;;7.20;;
56429;SDS011;42332;52.136;20.666;2022-09-09T03:43:33;13.13;;;6.55;;
56429;SDS011;42332;52.136;20.666;2022-09-09T03:45:58;12.32;;;5.80;;
56429;SDS011;42332;52.136;20.666;2022-09-09T03:48:24;11.27;;;6.00;;
56429;SDS011;42332;52.136;20.666;2022-09-09T03:50:51;11.68;;;6.18;;
56429;SDS011;42332;52.136;20.666;2022-09-09T03:53:18;14.45;;;6.22;;
56429;SDS011;42332;52.136;20.666;2022-09-09T03:55:45;15.57;;;6.82;;
56429;SDS011;42332;52.136;20.666;2022-09-09T03:58:12;15.70;;;6.65;;
56429;SDS011;42332;52.136;20.666;2022-09-09T04:00:38;12.65;;;6.13;;
56429;SDS011;42332;52.136;20.666;2022-09-09T04:03:07;13.98;;;6.47;;
56429;SDS011;42332;52.136;20.666;2022-09-09T04:05:34;13.13;;;7.03;;
56429;SDS011;42332;52.136;20.666;2022-09-09T04:07:59;11.65;;;5.70;;
56429;SDS011;42332;52.136;20.666;2022-09-09T04:10:24;13.35;;;6.32;;
56429;SDS011;42332;52.136;20.666;2022-09-09T04:12:50;13.95;;;6.38;;
56429;SDS011;42332;52.136;20.666;2022-09-09T04:15:15;12.68;;;6.43;;
56429;SDS011;42332;52.136;20.666;2022-09-09T04:17:41;18.17;;;6.07;;
56429;SDS011;42332;52.136;20.666;2022-09-09T04:20:07;17.27;;;6.45;;
56429;SDS011;42332;52.136;20.666;2022-09-09T04:22:36;11.68;;;5.88;;
56429;SDS011;42332;52.136;20.666;2022-09-09T04:25:03;13.63;;;6.00;;
56429;SDS011;42332;52.136;20.666;2022-09-09T04:27:30;17.40;;;5.55;;
56429;SDS011;42332;52.136;20.666;2022-09-09T04:29:56;16.27;;;6.50;;
56429;SDS011;42332;52.136;20.666;2022-09-09T04:32:22;13.88;;;6.47;;
56429;SDS011;42332;52.136;20.666;2022-09-09T04:34:47;13.40;;;6.25;;
56429;SDS011;42332;52.136;20.666;2022-09-09T04:37:13;17.20;;;6.15;;
56429;SDS011;42332;52.136;20.666;2022-09-09T04:39:39;11.95;;;6.15;;
56429;SDS011;42332;52.136;20.666;2022-09-09T04:42:04;10.70;;;5.50;;
56429;SDS011;42332;52.136;20.666;2022-09-09T04:44:30;12.10;;;6.13;;
56429;SDS011;42332;52.136;20.666;2022-09-09T04:46:55;14.07;;;5.50;;
56429;SDS011;42332;52.136;20.666;2022-09-09T04:49:21;16.27;;;5.60;;
56429;SDS011;42332;52.136;20.666;2022-09-09T04:51:48;12.40;;;5.60;;
56429;SDS011;42332;52.136;20.666;2022-09-09T04:54:14;12.50;;;5.53;;
56429;SDS011;42332;52.136;20.666;2022-09-09T04:56:39;11.75;;;5.95;;
56429;SDS011;42332;52.136;20.666;2022-09-09T04:59:06;13.07;;;5.75;;
56429;SDS011;42332;52.136;20.666;2022-09-09T05:01:32;11.45;;;5.93;;
56429;SDS011;42332;52.136;20.666;2022-09-09T05:03:57;10.85;;;5.18;;
56429;SDS011;42332;52.136;20.666;2022-09-09T05:06:23;14.52;;;5.70;;
56429;SDS011;42332;52.136;20.666;2022-09-09T05:08:48;10.43;;;5.07;;
56429;SDS011;42332;52.136;20.666;2022-09-09T05:11:25;10.23;;;5.00;;
56429;SDS011;42332;52.136;20.666;2022-09-09T05:13:52;11.65;;;5.80;;
56429;SDS011;42332;52.136;20.666;2022-09-09T05:16:18;13.77;;;6.25;;
56429;SDS011;42332;52.136;20.666;2022-09-09T05:18:44;11.85;;;5.32;;
56429;SDS011;42332;52.136;20.666;2022-09-09T05:21:10;11.73;;;5.55;;
56429;SDS011;42332;52.136;20.666;2022-09-09T05:23:36;10.35;;;5.45;;
56429;SDS011;42332;52.136;20.666;2022-09-09T05:26:02;11.43;;;5.60;;
56429;SDS011;42332;52.136;20.666;2022-09-09T05:28:28;13.73;;;6.38;;
56429;SDS011;42332;52.136;20.666;2022-09-09T05:30:58;10.45;;;5.75;;
56429;SDS011;42332;52.136;20.666;2022-09-09T05:33:25;13.38;;;5.75;;
56429;SDS011;42332;52.136;20.666;2022-09-09T05:35:55;14.20;;;5.68;;
56429;SDS011;42332;52.136;20.666;2022-09-09T05:38:24;10.13;;;4.95;;
56429;SDS011;42332;52.136;20.666;2022-09-09T05:40:51;13.57;;;5.43;;
56429;SDS011;42332;52.136;20.666;2022-09-09T05:43:17;11.85;;;5.95;;
56429;SDS011;42332;52.136;20.666;2022-09-09T05:45:44;13.23;;;5.72;;
56429;SDS011;42332;52.136;20.666;2022-09-09T05:48:11;11.80;;;5.95;;
56429;SDS011;42332;52.136;20.666;2022-09-09T05:50:36;15.30;;;5.75;;
56429;SDS011;42332;52.136;20.666;2022-09-09T05:53:02;12.90;;;6.82;;
56429;SDS011;42332;52.136;20.666;2022-09-09T05:55:28;13.05;;;5.95;;
56429;SDS011;42332;52.136;20.666;2022-09-09T05:57:53;12.52;;;5.93;;
56429;SDS011;42332;52.136;20.666;2022-09-09T06:00:19;12.35;;;5.82;;
56429;SDS011;42332;52.136;20.666;2022-09-09T06:02:49;11.80;;;5.88;;
56429;SDS011;42332;52.136;20.666;2022-09-09T06:05:17;11.93;;;5.80;;
56429;SDS011;42332;52.136;20.666;2022-09-09T06:07:42;12.40;;;6.35;;
56429;SDS011;42332;52.136;20.666;2022-09-09T06:10:09;12.02;;;6.05;;
56429;SDS011;42332;52.136;20.666;2022-09-09T06:12:35;11.38;;;6.05;;
56429;SDS011;42332;52.136;20.666;2022-09-09T06:15:01;13.90;;;6.35;;
56429;SDS011;42332;52.136;20.666;2022-09-09T06:17:26;12.93;;;5.70;;
56429;SDS011;42332;52.136;20.666;2022-09-09T06:19:52;11.32;;;6.03;;
56429;SDS011;42332;52.136;20.666;2022-09-09T06:22:17;14.32;;;6.18;;
56429;SDS011;42332;52.136;20.666;2022-09-09T06:24:43;10.85;;;5.47;;
56429;SDS011;42332;52.136;20.666;2022-09-09T06:27:09;14.45;;;6.70;;
56429;SDS011;42332;52.136;20.666;2022-09-09T06:29:35;14.75;;;6.65;;
56429;SDS011;42332;52.136;20.666;2022-09-09T06:32:01;16.83;;;6.90;;
56429;SDS011;42332;52.136;20.666;2022-09-09T06:34:27;14.57;;;6.65;;
56429;SDS011;42332;52.136;20.666;2022-09-09T06:36:53;15.68;;;7.35;;
56429;SDS011;42332;52.136;20.666;2022-09-09T06:39:19;14.10;;;6.60;;
56429;SDS011;42332;52.136;20.666;2022-09-09T06:41:44;12.82;;;6.18;;
56429;SDS011;42332;52.136;20.666;2022-09-09T06:44:09;16.20;;;6.40;;
56429;SDS011;42332;52.136;20.666;2022-09-09T06:46:36;14.52;;;6.07;;
56429;SDS011;42332;52.136;20.666;2022-09-09T06:49:03;12.60;;;6.13;;
56429;SDS011;42332;52.136;20.666;2022-09-09T06:51:29;13.32;;;6.72;;
56429;SDS011;42332;52.136;20.666;2022-09-09T06:53:56;14.10;;;6.68;;
56429;SDS011;42332;52.136;20.666;2022-09-09T06:56:30;15.68;;;7.20;;
56429;SDS011;42332;52.136;20.666;2022-09-09T06:58:58;14.52;;;6.75;;
56429;SDS011;42332;52.136;20.666;2022-09-09T07:01:27;16.25;;;7.25;;
56429;SDS011;42332;52.136;20.666;2022-09-09T07:03:55;15.15;;;6.65;;
56429;SDS011;42332;52.136;20.666;2022-09-09T07:06:29;15.90;;;6.20;;
56429;SDS011;42332;52.136;20.666;2022-09-09T07:09:03;15.15;;;7.63;;
56429;SDS011;42332;52.136;20.666;2022-09-09T07:11:31;14.75;;;6.78;;
56429;SDS011;42332;52.136;20.666;2022-09-09T07:13:58;16.02;;;6.78;;
56429;SDS011;42332;52.136;20.666;2022-09-09T07:16:24;19.80;;;7.63;;
56429;SDS011;42332;52.136;20.666;2022-09-09T07:18:51;18.33;;;6.82;;
56429;SDS011;42332;52.136;20.666;2022-09-09T07:21:17;17.08;;;7.75;;
56429;SDS011;42332;52.136;20.666;2022-09-09T07:23:43;19.10;;;7.78;;
56429;SDS011;42332;52.136;20.666;2022-09-09T07:28:39;18.65;;;7.45;;
56429;SDS011;42332;52.136;20.666;2022-09-09T07:31:06;21.00;;;8.38;;
56429;SDS011;42332;52.136;20.666;2022-09-09T07:33:32;17.48;;;8.07;;
56429;SDS011;42332;52.136;20.666;2022-09-09T07:36:07;20.90;;;8.13;;
56429;SDS011;42332;52.136;20.666;2022-09-09T07:38:37;19.92;;;8.77;;
56429;SDS011;42332;52.136;20.666;2022-09-09T07:41:05;19.13;;;7.95;;
56429;SDS011;42332;52.136;20.666;2022-09-09T07:43:31;20.45;;;9.60;;
56429;SDS011;42332;52.136;20.666;2022-09-09T07:45:58;17.13;;;8.02;;
56429;SDS011;42332;52.136;20.666;2022-09-09T07:48:25;22.02;;;8.65;;
56429;SDS011;42332;52.136;20.666;2022-09-09T07:50:50;19.23;;;7.75;;
56429;SDS011;42332;52.136;20.666;2022-09-09T07:53:16;21.13;;;8.50;;
56429;SDS011;42332;52.136;20.666;2022-09-09T07:55:41;22.83;;;8.98;;
56429;SDS011;42332;52.136;20.666;2022-09-09T07:58:07;20.05;;;8.88;;
56429;SDS011;42332;52.136;20.666;2022-09-09T08:00:33;22.65;;;8.80;;
56429;SDS011;42332;52.136;20.666;2022-09-09T08:02:58;20.13;;;8.43;;
56429;SDS011;42332;52.136;20.666;2022-09-09T08:05:27;26.55;;;9.05;;
56429;SDS011;42332;52.136;20.666;2022-09-09T08:07:52;24.13;;;9.57;;
56429;SDS011;42332;52.136;20.666;2022-09-09T08:10:17;23.58;;;8.60;;
56429;SDS011;42332;52.136;20.666;2022-09-09T08:12:43;23.38;;;8.88;;
56429;SDS011;42332;52.136;20.666;2022-09-09T08:15:09;23.25;;;10.07;;
56429;SDS011;42332;52.136;20.666;2022-09-09T08:17:34;28.98;;;9.00;;
56429;SDS011;42332;52.136;20.666;2022-09-09T08:19:59;20.50;;;8.05;;
56429;SDS011;42332;52.136;20.666;2022-09-09T08:22:29;26.60;;;9.88;;
56429;SDS011;42332;52.136;20.666;2022-09-09T08:24:54;28.33;;;9.82;;
56429;SDS011;42332;52.136;20.666;2022-09-09T08:27:20;19.75;;;9.85;;
56429;SDS011;42332;52.136;20.666;2022-09-09T08:29:46;29.77;;;11.43;;
56429;SDS011;42332;52.136;20.666;2022-09-09T08:32:12;22.85;;;9.10;;
56429;SDS011;42332;52.136;20.666;2022-09-09T08:34:38;28.20;;;9.82;;
56429;SDS011;42332;52.136;20.666;2022-09-09T08:37:03;32.30;;;11.30;;
56429;SDS011;42332;52.136;20.666;2022-09-09T08:39:29;28.85;;;10.23;;
56429;SDS011;42332;52.136;20.666;2022-09-09T08:42:04;30.35;;;10.00;;
56429;SDS011;42332;52.136;20.666;2022-09-09T08:52:25;26.25;;;9.85;;
56429;SDS011;42332;52.136;20.666;2022-09-09T08:54:55;27.58;;;10.43;;
56429;SDS011;42332;52.136;20.666;2022-09-09T08:57:24;32.42;;;11.45;;
56429;SDS011;42332;52.136;20.666;2022-09-09T08:59:54;26.38;;;10.63;;
56429;SDS011;42332;52.136;20.666;2022-09-09T09:02:32;29.20;;;11.95;;
56429;SDS011;42332;52.136;20.666;2022-09-09T09:08:43;29.83;;;10.93;;
56429;SDS011;42332;52.136;20.666;2022-09-09T09:11:25;31.13;;;11.82;;
56429;SDS011;42332;52.136;20.666;2022-09-09T09:14:12;31.83;;;11.48;;
56429;SDS011;42332;52.136;20.666;2022-09-09T09:16:49;29.77;;;10.88;;
56429;SDS011;42332;52.136;20.666;2022-09-09T09:19:26;26.25;;;10.70;;
56429;SDS011;42332;52.136;20.666;2022-09-09T09:27:38;29.92;;;12.20;;
56429;SDS011;42332;52.136;20.666;2022-09-09T09:30:40;28.33;;;11.80;;
56429;SDS011;42332;52.136;20.666;2022-09-09T09:35:51;34.83;;;12.15;;
56429;SDS011;42332;52.136;20.666;2022-09-09T09:38:22;35.50;;;12.13;;
56429;SDS011;42332;52.136;20.666;2022-09-09T09:40:53;30.50;;;11.73;;
56429;SDS011;42332;52.136;20.666;2022-09-09T09:45:59;38.80;;;12.95;;
56429;SDS011;42332;52.136;20.666;2022-09-09T09:48:25;33.05;;;12.75;;
56429;SDS011;42332;52.136;20.666;2022-09-09T09:53:22;34.30;;;14.30;;
56429;SDS011;42332;52.136;20.666;2022-09-09T09:55:55;33.30;;;12.23;;
56429;SDS011;42332;52.136;20.666;2022-09-09T09:58:22;32.97;;;12.43;;
56429;SDS011;42332;52.136;20.666;2022-09-09T10:00:49;31.55;;;12.68;;
56429;SDS011;42332;52.136;20.666;2022-09-09T10:03:20;34.22;;;12.52;;
56429;SDS011;42332;52.136;20.666;2022-09-09T10:05:48;31.92;;;13.85;;
56429;SDS011;42332;52.136;20.666;2022-09-09T10:08:15;34.08;;;13.15;;
56429;SDS011;42332;52.136;20.666;2022-09-09T10:18:36;33.92;;;13.30;;
56429;SDS011;42332;52.136;20.666;2022-09-09T10:43:35;34.63;;;13.45;;
56429;SDS011;42332;52.136;20.666;2022-09-09T10:46:16;38.53;;;14.80;;
56429;SDS011;42332;52.136;20.666;2022-09-09T10:56:29;35.38;;;14.35;;
56429;SDS011;42332;52.136;20.666;2022-09-09T11:01:51;36.53;;;14.10;;
56429;SDS011;42332;52.136;20.666;2022-09-09T11:06:56;38.20;;;14.75;;
56429;SDS011;42332;52.136;20.666;2022-09-09T11:09:23;32.17;;;14.27;;
56429;SDS011;42332;52.136;20.666;2022-09-09T11:11:57;35.60;;;15.18;;
56429;SDS011;42332;52.136;20.666;2022-09-09T11:14:28;34.22;;;15.15;;
56429;SDS011;42332;52.136;20.666;2022-09-09T11:24:41;41.50;;;15.93;;
56429;SDS011;42332;52.136;20.666;2022-09-09T11:27:13;39.63;;;16.42;;
56429;SDS011;42332;52.136;20.666;2022-09-09T11:35:38;34.30;;;15.32;;
56429;SDS011;42332;52.136;20.666;2022-09-09T11:40:58;37.30;;;14.93;;
56429;SDS011;42332;52.136;20.666;2022-09-09T11:46:05;47.63;;;16.08;;
56429;SDS011;42332;52.136;20.666;2022-09-09T11:48:34;42.38;;;16.88;;
56429;SDS011;42332;52.136;20.666;2022-09-09T11:51:10;39.13;;;16.38;;
56429;SDS011;42332;52.136;20.666;2022-09-09T11:53:54;40.53;;;14.73;;
56429;SDS011;42332;52.136;20.666;2022-09-09T11:56:32;41.22;;;16.00;;
56429;SDS011;42332;52.136;20.666;2022-09-09T11:59:19;41.75;;;16.48;;
56429;SDS011;42332;52.136;20.666;2022-09-09T12:01:49;39.10;;;16.40;;
56429;SDS011;42332;52.136;20.666;2022-09-09T12:06:52;43.92;;;17.17;;
56429;SDS011;42332;52.136;20.666;2022-09-09T12:09:21;40.25;;;16.33;;
56429;SDS011;42332;52.136;20.666;2022-09-09T12:11:52;40.50;;;15.98;;
56429;SDS011;42332;52.136;20.666;2022-09-09T12:17:21;35.05;;;14.80;;
56429;SDS011;42332;52.136;20.666;2022-09-09T12:19:48;40.67;;;14.43;;
56429;SDS011;42332;52.136;20.666;2022-09-09T12:22:33;41.72;;;16.65;;
56429;SDS011;42332;52.136;20.666;2022-09-09T12:36:11;42.03;;;14.57;;
56429;SDS011;42332;52.136;20.666;2022-09-09T12:38:42;41.30;;;14.88;;
56429;SDS011;42332;52.136;20.666;2022-09-09T12:41:21;40.40;;;15.43;;
56429;SDS011;42332;52.136;20.666;2022-09-09T12:43:48;37.58;;;14.40;;
56429;SDS011;42332;52.136;20.666;2022-09-09T12:46:48;41.88;;;15.77;;
56429;SDS011;42332;52.136;20.666;2022-09-09T12:51:53;35.38;;;14.90;;
56429;SDS011;42332;52.136;20.666;2022-09-09T12:54:19;35.83;;;14.40;;
56429;SDS011;42332;52.136;20.666;2022-09-09T12:56:45;41.78;;;14.82;;
56429;SDS011;42332;52.136;20.666;2022-09-09T12:59:34;34.80;;;14.30;;
56429;SDS011;42332;52.136;20.666;2022-09-09T13:02:01;35.95;;;14.98;;
56429;SDS011;42332;52.136;20.666;2022-09-09T13:04:26;36.53;;;16.02;;
56429;SDS011;42332;52.136;20.666;2022-09-09T13:06:52;33.78;;;13.27;;
56429;SDS011;42332;52.136;20.666;2022-09-09T13:09:18;35.97;;;13.48;;
56429;SDS011;42332;52.136;20.666;2022-09-09T13:11:46;28.90;;;13.05;;
56429;SDS011;42332;52.136;20.666;2022-09-09T13:14:16;33.00;;;13.25;;
56429;SDS011;42332;52.136;20.666;2022-09-09T13:16:53;36.83;;;14.00;;
56429;SDS011;42332;52.136;20.666;2022-09-09T13:19:22;31.60;;;13.02;;
56429;SDS011;42332;52.136;20.666;2022-09-09T13:21:50;34.85;;;14.05;;
56429;SDS011;42332;52.136;20.666;2022-09-09T13:24:31;36.95;;;15.23;;
56429;SDS011;42332;52.136;20.666;2022-09-09T13:26:58;34.08;;;14.02;;
56429;SDS011;42332;52.136;20.666;2022-09-09T13:29:28;32.70;;;14.38;;
56429;SDS011;42332;52.136;20.666;2022-09-09T13:32:03;32.88;;;14.00;;
56429;SDS011;42332;52.136;20.666;2022-09-09T13:37:04;29.33;;;12.68;;
56429;SDS011;42332;52.136;20.666;2022-09-09T13:39:31;29.90;;;12.75;;
56429;SDS011;42332;52.136;20.666;2022-09-09T13:42:01;30.17;;;13.25;;
56429;SDS011;42332;52.136;20.666;2022-09-09T13:44:33;29.27;;;12.85;;
56429;SDS011;42332;52.136;20.666;2022-09-09T13:47:03;29.58;;;13.05;;
56429;SDS011;42332;52.136;20.666;2022-09-09T13:49:30;30.40;;;13.30;;
56429;SDS011;42332;52.136;20.666;2022-09-09T13:52:14;28.52;;;13.52;;
56429;SDS011;42332;52.136;20.666;2022-09-09T13:54:42;30.77;;;14.57;;
56429;SDS011;42332;52.136;20.666;2022-09-09T13:57:26;36.20;;;14.65;;
56429;SDS011;42332;52.136;20.666;2022-09-09T13:59:52;30.00;;;14.30;;
56429;SDS011;42332;52.136;20.666;2022-09-09T14:02:19;34.22;;;14.60;;
56429;SDS011;42332;52.136;20.666;2022-09-09T14:04:46;28.85;;;12.35;;
56429;SDS011;42332;52.136;20.666;2022-09-09T14:07:15;27.25;;;13.73;;
56429;SDS011;42332;52.136;20.666;2022-09-09T14:09:41;31.20;;;12.50;;
56429;SDS011;42332;52.136;20.666;2022-09-09T14:12:13;26.55;;;13.75;;
56429;SDS011;42332;52.136;20.666;2022-09-09T14:14:40;26.70;;;13.98;;
56429;SDS011;42332;52.136;20.666;2022-09-09T14:17:07;29.27;;;13.82;;
56429;SDS011;42332;52.136;20.666;2022-09-09T14:19:33;30.33;;;13.55;;
56429;SDS011;42332;52.136;20.666;2022-09-09T14:21:58;30.05;;;12.40;;
56429;SDS011;42332;52.136;20.666;2022-09-09T14:24:23;31.20;;;13.40;;
56429;SDS011;42332;52.136;20.666;2022-09-09T14:26:50;29.65;;;13.35;;
56429;SDS011;42332;52.136;20.666;2022-09-09T14:29:15;34.40;;;14.15;;
56429;SDS011;42332;52.136;20.666;2022-09-09T14:31:41;30.83;;;13.50;;
56429;SDS011;42332;52.136;20.666;2022-09-09T14:34:06;32.97;;;14.18;;
56429;SDS011;42332;52.136;20.666;2022-09-09T14:36:32;34.58;;;14.43;;
56429;SDS011;42332;52.136;20.666;2022-09-09T14:38:57;27.90;;;13.32;;
56429;SDS011;42332;52.136;20.666;2022-09-09T14:41:23;31.58;;;12.93;;
56429;SDS011;42332;52.136;20.666;2022-09-09T14:43:48;25.27;;;12.40;;
56429;SDS011;42332;52.136;20.666;2022-09-09T14:46:15;26.17;;;13.15;;
56429;SDS011;42332;52.136;20.666;2022-09-09T14:48:42;32.35;;;14.63;;
56429;SDS011;42332;52.136;20.666;2022-09-09T14:51:09;33.53;;;14.77;;
56429;SDS011;42332;52.136;20.666;2022-09-09T14:53:37;23.50;;;12.23;;
56429;SDS011;42332;52.136;20.666;2022-09-09T14:56:04;30.25;;;13.93;;
56429;SDS011;42332;52.136;20.666;2022-09-09T14:58:31;28.08;;;14.60;;
56429;SDS011;42332;52.136;20.666;2022-09-09T15:01:01;29.42;;;13.95;;
56429;SDS011;42332;52.136;20.666;2022-09-09T15:03:37;25.75;;;12.70;;
56429;SDS011;42332;52.136;20.666;2022-09-09T15:06:06;32.67;;;14.10;;
56429;SDS011;42332;52.136;20.666;2022-09-09T15:08:33;33.08;;;14.85;;
56429;SDS011;42332;52.136;20.666;2022-09-09T15:11:03;32.95;;;14.82;;
56429;SDS011;42332;52.136;20.666;2022-09-09T15:13:29;30.70;;;13.98;;
56429;SDS011;42332;52.136;20.666;2022-09-09T15:15:54;37.63;;;15.60;;
56429;SDS011;42332;52.136;20.666;2022-09-09T15:18:20;30.50;;;14.13;;
56429;SDS011;42332;52.136;20.666;2022-09-09T15:20:46;31.67;;;14.90;;
56429;SDS011;42332;52.136;20.666;2022-09-09T15:23:12;33.83;;;14.60;;
56429;SDS011;42332;52.136;20.666;2022-09-09T15:25:38;35.10;;;15.05;;
56429;SDS011;42332;52.136;20.666;2022-09-09T15:28:04;34.25;;;13.85;;
56429;SDS011;42332;52.136;20.666;2022-09-09T15:30:29;30.40;;;14.27;;
56429;SDS011;42332;52.136;20.666;2022-09-09T15:32:55;30.70;;;13.73;;
56429;SDS011;42332;52.136;20.666;2022-09-09T15:35:20;24.52;;;12.82;;
56429;SDS011;42332;52.136;20.666;2022-09-09T15:37:45;24.48;;;12.90;;
56429;SDS011;42332;52.136;20.666;2022-09-09T15:40:11;28.05;;;11.50;;
56429;SDS011;42332;52.136;20.666;2022-09-09T15:42:36;31.33;;;13.38;;
56429;SDS011;42332;52.136;20.666;2022-09-09T15:45:02;27.42;;;12.93;;
56429;SDS011;42332;52.136;20.666;2022-09-09T15:47:27;31.55;;;12.85;;
56429;SDS011;42332;52.136;20.666;2022-09-09T15:49:53;29.50;;;12.82;;
56429;SDS011;42332;52.136;20.666;2022-09-09T15:52:18;35.60;;;13.38;;
56429;SDS011;42332;52.136;20.666;2022-09-09T15:54:44;29.42;;;12.88;;
56429;SDS011;42332;52.136;20.666;2022-09-09T15:57:11;28.60;;;12.32;;
56429;SDS011;42332;52.136;20.666;2022-09-09T15:59:37;27.58;;;13.02;;
56429;SDS011;42332;52.136;20.666;2022-09-09T16:02:03;25.08;;;11.20;;
56429;SDS011;42332;52.136;20.666;2022-09-09T16:04:30;26.15;;;11.27;;
56429;SDS011;42332;52.136;20.666;2022-09-09T16:06:57;26.98;;;12.55;;
56429;SDS011;42332;52.136;20.666;2022-09-09T16:09:24;27.08;;;12.32;;
56429;SDS011;42332;52.136;20.666;2022-09-09T16:11:51;31.45;;;13.02;;
56429;SDS011;42332;52.136;20.666;2022-09-09T16:14:18;34.85;;;14.68;;
56429;SDS011;42332;52.136;20.666;2022-09-09T16:16:43;29.85;;;13.23;;
56429;SDS011;42332;52.136;20.666;2022-09-09T16:19:10;28.75;;;13.02;;
56429;SDS011;42332;52.136;20.666;2022-09-09T16:21:41;29.58;;;13.25;;
56429;SDS011;42332;52.136;20.666;2022-09-09T16:24:09;32.33;;;14.07;;
56429;SDS011;42332;52.136;20.666;2022-09-09T16:26:37;35.13;;;14.05;;
56429;SDS011;42332;52.136;20.666;2022-09-09T16:29:04;33.55;;;14.95;;
56429;SDS011;42332;52.136;20.666;2022-09-09T16:31:30;36.05;;;14.43;;
56429;SDS011;42332;52.136;20.666;2022-09-09T16:33:57;35.45;;;13.75;;
56429;SDS011;42332;52.136;20.666;2022-09-09T16:36:24;33.40;;;14.60;;
56429;SDS011;42332;52.136;20.666;2022-09-09T16:38:56;31.10;;;13.38;;
56429;SDS011;42332;52.136;20.666;2022-09-09T16:41:24;34.60;;;13.57;;
56429;SDS011;42332;52.136;20.666;2022-09-09T16:43:53;30.95;;;12.95;;
56429;SDS011;42332;52.136;20.666;2022-09-09T16:46:27;33.30;;;12.73;;
56429;SDS011;42332;52.136;20.666;2022-09-09T16:48:53;35.28;;;13.93;;
56429;SDS011;42332;52.136;20.666;2022-09-09T16:51:22;36.92;;;13.82;;
56429;SDS011;42332;52.136;20.666;2022-09-09T16:53:49;31.15;;;12.73;;
56429;SDS011;42332;52.136;20.666;2022-09-09T16:56:16;26.50;;;12.02;;
56429;SDS011;42332;52.136;20.666;2022-09-09T16:58:53;31.25;;;12.48;;
56429;SDS011;42332;52.136;20.666;2022-09-09T17:01:26;29.23;;;12.40;;
56429;SDS011;42332;52.136;20.666;2022-09-09T17:03:57;28.15;;;12.57;;
56429;SDS011;42332;52.136;20.666;2022-09-09T17:06:27;28.95;;;12.80;;
56429;SDS011;42332;52.136;20.666;2022-09-09T17:08:57;28.40;;;12.73;;